sensor_id;sensor_type;location;lat;lon;timestamp;temperature;humidity
20288;DHT22;10303;51.960;8.372;2023-02-28T00:00:34;4.20;91.50
20288;DHT22;10303;51.960;8.372;2023-02-28T00:03:01;4.20;91.90
20288;DHT22;10303;51.960;8.372;2023-02-28T00:05:28;4.10;91.50
20288;DHT22;10303;51.960;8.372;2023-02-28T00:07:55;4.10;91.50
20288;DHT22;10303;51.960;8.372;2023-02-28T00:10:27;4.10;91.50
20288;DHT22;10303;51.960;8.372;2023-02-28T00:12:56;4.00;91.60
20288;DHT22;10303;51.960;8.372;2023-02-28T00:15:26;4.00;91.50
20288;DHT22;10303;51.960;8.372;2023-02-28T00:17:52;4.20;91.60
20288;DHT22;10303;51.960;8.372;2023-02-28T00:20:18;3.90;91.50
20288;DHT22;10303;51.960;8.372;2023-02-28T00:22:49;3.90;91.50
20288;DHT22;10303;51.960;8.372;2023-02-28T00:25:22;3.80;91.70
20288;DHT22;10303;51.960;8.372;2023-02-28T00:27:49;3.80;91.70
20288;DHT22;10303;51.960;8.372;2023-02-28T00:30:18;3.90;91.60
20288;DHT22;10303;51.960;8.372;2023-02-28T00:32:49;3.80;91.70
20288;DHT22;10303;51.960;8.372;2023-02-28T00:35:18;3.70;91.60
20288;DHT22;10303;51.960;8.372;2023-02-28T00:37:44;3.70;91.70
20288;DHT22;10303;51.960;8.372;2023-02-28T00:40:10;4.40;92.00
20288;DHT22;10303;51.960;8.372;2023-02-28T00:42:37;3.60;91.80
20288;DHT22;10303;51.960;8.372;2023-02-28T00:45:04;3.60;91.80
20288;DHT22;10303;51.960;8.372;2023-02-28T00:47:31;3.60;91.80
20288;DHT22;10303;51.960;8.372;2023-02-28T00:49:57;4.90;92.20
20288;DHT22;10303;51.960;8.372;2023-02-28T00:52:23;3.50;91.90
20288;DHT22;10303;51.960;8.372;2023-02-28T00:54:50;4.20;92.20
20288;DHT22;10303;51.960;8.372;2023-02-28T00:57:15;4.60;92.30
20288;DHT22;10303;51.960;8.372;2023-02-28T00:59:41;3.50;92.00
20288;DHT22;10303;51.960;8.372;2023-02-28T01:02:07;3.50;92.00
20288;DHT22;10303;51.960;8.372;2023-02-28T01:04:36;3.60;92.10
20288;DHT22;10303;51.960;8.372;2023-02-28T01:07:02;3.50;92.10
20288;DHT22;10303;51.960;8.372;2023-02-28T01:09:28;3.40;92.10
20288;DHT22;10303;51.960;8.372;2023-02-28T01:11:54;4.30;92.40
20288;DHT22;10303;51.960;8.372;2023-02-28T01:14:20;3.40;92.20
20288;DHT22;10303;51.960;8.372;2023-02-28T01:16:45;3.40;92.30
20288;DHT22;10303;51.960;8.372;2023-02-28T01:19:12;3.50;92.60
20288;DHT22;10303;51.960;8.372;2023-02-28T01:21:38;3.40;92.30
20288;DHT22;10303;51.960;8.372;2023-02-28T01:24:05;4.00;92.50
20288;DHT22;10303;51.960;8.372;2023-02-28T01:26:32;3.30;92.30
20288;DHT22;10303;51.960;8.372;2023-02-28T01:28:58;3.60;92.40
20288;DHT22;10303;51.960;8.372;2023-02-28T01:31:25;3.30;92.30
20288;DHT22;10303;51.960;8.372;2023-02-28T01:33:51;3.30;92.30
20288;DHT22;10303;51.960;8.372;2023-02-28T01:36:19;3.30;92.30
20288;DHT22;10303;51.960;8.372;2023-02-28T01:38:47;3.60;92.50
20288;DHT22;10303;51.960;8.372;2023-02-28T01:41:23;3.80;92.50
20288;DHT22;10303;51.960;8.372;2023-02-28T01:44:53;4.20;92.80
20288;DHT22;10303;51.960;8.372;2023-02-28T01:47:10;3.20;92.50
20288;DHT22;10303;51.960;8.372;2023-02-28T01:49:37;3.10;92.30
20288;DHT22;10303;51.960;8.372;2023-02-28T01:52:03;4.60;92.80
20288;DHT22;10303;51.960;8.372;2023-02-28T01:54:34;3.00;92.30
20288;DHT22;10303;51.960;8.372;2023-02-28T01:57:15;3.90;92.70
20288;DHT22;10303;51.960;8.372;2023-02-28T01:59:52;4.30;92.90
20288;DHT22;10303;51.960;8.372;2023-02-28T02:02:24;3.00;92.30
20288;DHT22;10303;51.960;8.372;2023-02-28T02:04:58;3.10;92.40
20288;DHT22;10303;51.960;8.372;2023-02-28T02:07:36;2.90;92.40
20288;DHT22;10303;51.960;8.372;2023-02-28T02:10:11;2.80;92.40
20288;DHT22;10303;51.960;8.372;2023-02-28T02:19:14;2.80;92.60
20288;DHT22;10303;51.960;8.372;2023-02-28T02:28:22;2.70;92.60
20288;DHT22;10303;51.960;8.372;2023-02-28T02:36:34;2.60;92.60
20288;DHT22;10303;51.960;8.372;2023-02-28T02:39:21;2.60;92.70
20288;DHT22;10303;51.960;8.372;2023-02-28T02:42:00;2.60;92.80
20288;DHT22;10303;51.960;8.372;2023-02-28T02:44:39;2.60;92.70
20288;DHT22;10303;51.960;8.372;2023-02-28T02:47:14;2.60;92.70
20288;DHT22;10303;51.960;8.372;2023-02-28T02:49:49;4.30;93.30
20288;DHT22;10303;51.960;8.372;2023-02-28T02:52:21;3.30;93.10
20288;DHT22;10303;51.960;8.372;2023-02-28T02:54:52;2.50;92.70
20288;DHT22;10303;51.960;8.372;2023-02-28T02:57:30;2.40;92.70
20288;DHT22;10303;51.960;8.372;2023-02-28T03:00:02;2.50;92.80
20288;DHT22;10303;51.960;8.372;2023-02-28T03:02:32;2.50;92.80
20288;DHT22;10303;51.960;8.372;2023-02-28T03:05:01;2.50;92.80
20288;DHT22;10303;51.960;8.372;2023-02-28T03:07:31;3.70;93.20
20288;DHT22;10303;51.960;8.372;2023-02-28T03:09:57;2.40;92.80
20288;DHT22;10303;51.960;8.372;2023-02-28T03:12:32;2.40;92.80
20288;DHT22;10303;51.960;8.372;2023-02-28T03:15:55;2.40;92.80
20288;DHT22;10303;51.960;8.372;2023-02-28T03:18:36;2.40;92.90
20288;DHT22;10303;51.960;8.372;2023-02-28T03:29:47;4.10;93.50
20288;DHT22;10303;51.960;8.372;2023-02-28T03:32:40;3.70;93.50
20288;DHT22;10303;51.960;8.372;2023-02-28T03:35:29;3.10;93.20
20288;DHT22;10303;51.960;8.372;2023-02-28T03:38:11;2.20;92.90
20288;DHT22;10303;51.960;8.372;2023-02-28T03:40:49;2.20;92.90
20288;DHT22;10303;51.960;8.372;2023-02-28T03:43:28;3.40;93.20
20288;DHT22;10303;51.960;8.372;2023-02-28T03:46:02;2.20;92.80
20288;DHT22;10303;51.960;8.372;2023-02-28T03:48:41;2.10;92.80
20288;DHT22;10303;51.960;8.372;2023-02-28T03:51:16;2.10;92.90
20288;DHT22;10303;51.960;8.372;2023-02-28T03:53:48;2.10;92.90
20288;DHT22;10303;51.960;8.372;2023-02-28T03:56:27;2.10;92.90
20288;DHT22;10303;51.960;8.372;2023-02-28T04:02:10;2.00;93.00
20288;DHT22;10303;51.960;8.372;2023-02-28T04:04:36;2.00;92.80
20288;DHT22;10303;51.960;8.372;2023-02-28T04:07:06;2.20;92.90
20288;DHT22;10303;51.960;8.372;2023-02-28T04:09:34;2.80;93.20
20288;DHT22;10303;51.960;8.372;2023-02-28T04:12:00;3.80;93.40
20288;DHT22;10303;51.960;8.372;2023-02-28T04:14:26;2.00;92.90
20288;DHT22;10303;51.960;8.372;2023-02-28T04:16:52;2.80;93.30
20288;DHT22;10303;51.960;8.372;2023-02-28T04:19:18;2.80;93.20
20288;DHT22;10303;51.960;8.372;2023-02-28T04:21:49;2.00;92.90
20288;DHT22;10303;51.960;8.372;2023-02-28T04:24:20;1.90;92.90
20288;DHT22;10303;51.960;8.372;2023-02-28T04:26:53;3.00;93.20
20288;DHT22;10303;51.960;8.372;2023-02-28T04:29:26;1.80;92.90
20288;DHT22;10303;51.960;8.372;2023-02-28T04:31:54;1.80;93.00
20288;DHT22;10303;51.960;8.372;2023-02-28T04:34:23;1.80;92.90
20288;DHT22;10303;51.960;8.372;2023-02-28T04:36:51;3.40;93.40
20288;DHT22;10303;51.960;8.372;2023-02-28T04:39:21;1.80;92.90
20288;DHT22;10303;51.960;8.372;2023-02-28T04:41:47;1.80;93.00
20288;DHT22;10303;51.960;8.372;2023-02-28T04:44:14;1.90;93.30
20288;DHT22;10303;51.960;8.372;2023-02-28T04:46:41;1.80;93.00
20288;DHT22;10303;51.960;8.372;2023-02-28T04:49:08;1.70;93.00
20288;DHT22;10303;51.960;8.372;2023-02-28T04:51:36;1.80;93.00
20288;DHT22;10303;51.960;8.372;2023-02-28T04:54:03;1.70;92.90
20288;DHT22;10303;51.960;8.372;2023-02-28T04:56:29;1.70;92.90
20288;DHT22;10303;51.960;8.372;2023-02-28T04:58:55;1.60;92.90
20288;DHT22;10303;51.960;8.372;2023-02-28T05:01:32;2.60;93.10
20288;DHT22;10303;51.960;8.372;2023-02-28T05:04:02;1.60;93.00
20288;DHT22;10303;51.960;8.372;2023-02-28T05:06:31;1.60;92.80
20288;DHT22;10303;51.960;8.372;2023-02-28T05:08:59;1.60;92.80
20288;DHT22;10303;51.960;8.372;2023-02-28T05:11:30;1.50;92.70
20288;DHT22;10303;51.960;8.372;2023-02-28T05:14:03;1.50;92.80
20288;DHT22;10303;51.960;8.372;2023-02-28T05:16:31;1.50;92.80
20288;DHT22;10303;51.960;8.372;2023-02-28T05:18:58;1.40;92.80
20288;DHT22;10303;51.960;8.372;2023-02-28T05:21:25;1.50;92.80
20288;DHT22;10303;51.960;8.372;2023-02-28T05:24:06;1.40;92.70
20288;DHT22;10303;51.960;8.372;2023-02-28T05:26:37;1.40;92.80
20288;DHT22;10303;51.960;8.372;2023-02-28T05:29:05;1.30;92.70
20288;DHT22;10303;51.960;8.372;2023-02-28T05:31:32;1.30;92.70
20288;DHT22;10303;51.960;8.372;2023-02-28T05:34:00;2.10;92.90
20288;DHT22;10303;51.960;8.372;2023-02-28T05:36:26;1.30;92.70
20288;DHT22;10303;51.960;8.372;2023-02-28T05:38:52;1.30;92.70
20288;DHT22;10303;51.960;8.372;2023-02-28T05:41:19;1.20;92.60
20288;DHT22;10303;51.960;8.372;2023-02-28T05:43:46;1.20;92.60
20288;DHT22;10303;51.960;8.372;2023-02-28T05:46:12;1.20;92.60
20288;DHT22;10303;51.960;8.372;2023-02-28T05:48:41;1.20;92.60
20288;DHT22;10303;51.960;8.372;2023-02-28T05:51:08;1.10;92.60
20288;DHT22;10303;51.960;8.372;2023-02-28T05:53:34;1.10;92.60
20288;DHT22;10303;51.960;8.372;2023-02-28T05:56:01;1.10;92.50
20288;DHT22;10303;51.960;8.372;2023-02-28T05:58:27;1.10;92.60
20288;DHT22;10303;51.960;8.372;2023-02-28T06:00:57;1.00;92.50
20288;DHT22;10303;51.960;8.372;2023-02-28T06:03:43;2.10;92.90
20288;DHT22;10303;51.960;8.372;2023-02-28T06:06:09;1.00;92.60
20288;DHT22;10303;51.960;8.372;2023-02-28T06:08:35;1.00;92.60
20288;DHT22;10303;51.960;8.372;2023-02-28T06:11:03;1.00;92.60
20288;DHT22;10303;51.960;8.372;2023-02-28T06:13:29;0.90;92.60
20288;DHT22;10303;51.960;8.372;2023-02-28T06:15:55;0.90;92.60
20288;DHT22;10303;51.960;8.372;2023-02-28T06:18:21;0.90;92.60
20288;DHT22;10303;51.960;8.372;2023-02-28T06:20:54;0.90;92.60
20288;DHT22;10303;51.960;8.372;2023-02-28T06:23:21;0.90;92.70
20288;DHT22;10303;51.960;8.372;2023-02-28T06:25:47;0.80;92.60
20288;DHT22;10303;51.960;8.372;2023-02-28T06:28:14;0.80;92.60
20288;DHT22;10303;51.960;8.372;2023-02-28T06:30:41;0.80;92.60
20288;DHT22;10303;51.960;8.372;2023-02-28T06:33:07;0.80;92.60
20288;DHT22;10303;51.960;8.372;2023-02-28T06:35:32;0.80;92.70
20288;DHT22;10303;51.960;8.372;2023-02-28T06:37:58;0.80;92.60
20288;DHT22;10303;51.960;8.372;2023-02-28T06:40:24;0.70;92.60
20288;DHT22;10303;51.960;8.372;2023-02-28T06:42:56;0.70;92.70
20288;DHT22;10303;51.960;8.372;2023-02-28T06:45:22;0.70;92.80
20288;DHT22;10303;51.960;8.372;2023-02-28T06:47:48;0.70;92.70
20288;DHT22;10303;51.960;8.372;2023-02-28T06:50:17;0.90;92.80
20288;DHT22;10303;51.960;8.372;2023-02-28T06:52:46;0.70;92.90
20288;DHT22;10303;51.960;8.372;2023-02-28T06:55:12;0.70;92.90
20288;DHT22;10303;51.960;8.372;2023-02-28T06:57:38;0.70;92.90
20288;DHT22;10303;51.960;8.372;2023-02-28T07:00:07;0.70;93.10
20288;DHT22;10303;51.960;8.372;2023-02-28T07:02:35;0.70;93.00
20288;DHT22;10303;51.960;8.372;2023-02-28T07:05:03;0.70;93.10
20288;DHT22;10303;51.960;8.372;2023-02-28T07:07:33;0.70;93.10
20288;DHT22;10303;51.960;8.372;2023-02-28T07:10:01;0.70;93.20
20288;DHT22;10303;51.960;8.372;2023-02-28T07:12:27;0.70;93.20
20288;DHT22;10303;51.960;8.372;2023-02-28T07:14:53;0.80;93.30
20288;DHT22;10303;51.960;8.372;2023-02-28T07:17:21;0.80;93.40
20288;DHT22;10303;51.960;8.372;2023-02-28T07:19:47;0.80;93.40
20288;DHT22;10303;51.960;8.372;2023-02-28T07:22:12;0.80;93.40
20288;DHT22;10303;51.960;8.372;2023-02-28T07:24:38;0.80;93.50
20288;DHT22;10303;51.960;8.372;2023-02-28T07:27:04;0.90;93.60
20288;DHT22;10303;51.960;8.372;2023-02-28T07:29:30;0.90;93.60
20288;DHT22;10303;51.960;8.372;2023-02-28T07:31:56;0.90;93.70
20288;DHT22;10303;51.960;8.372;2023-02-28T07:34:22;0.90;93.70
20288;DHT22;10303;51.960;8.372;2023-02-28T07:36:48;0.90;93.80
20288;DHT22;10303;51.960;8.372;2023-02-28T07:39:14;1.00;93.90
20288;DHT22;10303;51.960;8.372;2023-02-28T07:41:40;1.00;94.00
20288;DHT22;10303;51.960;8.372;2023-02-28T07:44:12;1.10;94.20
20288;DHT22;10303;51.960;8.372;2023-02-28T07:46:38;1.10;94.30
20288;DHT22;10303;51.960;8.372;2023-02-28T07:49:04;1.20;94.70
20288;DHT22;10303;51.960;8.372;2023-02-28T07:51:31;1.20;94.50
20288;DHT22;10303;51.960;8.372;2023-02-28T07:53:57;1.30;94.60
20288;DHT22;10303;51.960;8.372;2023-02-28T07:56:23;1.30;94.70
20288;DHT22;10303;51.960;8.372;2023-02-28T07:58:49;1.40;94.80
20288;DHT22;10303;51.960;8.372;2023-02-28T08:01:15;1.40;95.00
20288;DHT22;10303;51.960;8.372;2023-02-28T08:03:41;1.50;95.10
20288;DHT22;10303;51.960;8.372;2023-02-28T08:06:16;1.60;95.20
20288;DHT22;10303;51.960;8.372;2023-02-28T08:08:47;1.60;95.40
20288;DHT22;10303;51.960;8.372;2023-02-28T08:11:14;1.70;95.40
20288;DHT22;10303;51.960;8.372;2023-02-28T08:13:40;1.80;95.50
20288;DHT22;10303;51.960;8.372;2023-02-28T08:16:07;1.80;95.60
20288;DHT22;10303;51.960;8.372;2023-02-28T08:18:33;1.90;95.70
20288;DHT22;10303;51.960;8.372;2023-02-28T08:20:59;2.00;96.20
20288;DHT22;10303;51.960;8.372;2023-02-28T08:23:30;2.10;95.90
20288;DHT22;10303;51.960;8.372;2023-02-28T08:25:58;2.20;96.10
20288;DHT22;10303;51.960;8.372;2023-02-28T08:28:25;3.40;96.40
20288;DHT22;10303;51.960;8.372;2023-02-28T08:30:50;2.40;96.20
20288;DHT22;10303;51.960;8.372;2023-02-28T08:33:16;2.40;96.30
20288;DHT22;10303;51.960;8.372;2023-02-28T08:35:42;3.00;96.50
20288;DHT22;10303;51.960;8.372;2023-02-28T08:38:08;2.60;96.50
20288;DHT22;10303;51.960;8.372;2023-02-28T08:40:34;2.70;96.50
20288;DHT22;10303;51.960;8.372;2023-02-28T08:43:00;2.80;96.50
20288;DHT22;10303;51.960;8.372;2023-02-28T08:45:26;2.90;96.60
20288;DHT22;10303;51.960;8.372;2023-02-28T08:47:53;3.00;96.60
20288;DHT22;10303;51.960;8.372;2023-02-28T08:50:20;3.10;96.60
20288;DHT22;10303;51.960;8.372;2023-02-28T08:52:46;3.20;96.70
20288;DHT22;10303;51.960;8.372;2023-02-28T08:55:12;3.30;96.70
20288;DHT22;10303;51.960;8.372;2023-02-28T08:57:38;3.50;96.80
20288;DHT22;10303;51.960;8.372;2023-02-28T09:00:04;3.60;97.00
20288;DHT22;10303;51.960;8.372;2023-02-28T09:02:31;3.80;97.30
20288;DHT22;10303;51.960;8.372;2023-02-28T09:04:57;4.00;97.70
20288;DHT22;10303;51.960;8.372;2023-02-28T09:07:24;4.20;98.00
20288;DHT22;10303;51.960;8.372;2023-02-28T09:09:50;4.80;98.40
20288;DHT22;10303;51.960;8.372;2023-02-28T09:12:23;4.60;98.50
20288;DHT22;10303;51.960;8.372;2023-02-28T09:14:51;4.90;98.80
20288;DHT22;10303;51.960;8.372;2023-02-28T09:17:18;5.30;98.70
20288;DHT22;10303;51.960;8.372;2023-02-28T09:19:44;6.10;99.00
20288;DHT22;10303;51.960;8.372;2023-02-28T09:22:11;5.80;99.20
20288;DHT22;10303;51.960;8.372;2023-02-28T09:24:37;6.10;97.90
20288;DHT22;10303;51.960;8.372;2023-02-28T09:27:03;6.50;98.30
20288;DHT22;10303;51.960;8.372;2023-02-28T09:29:31;6.70;98.30
20288;DHT22;10303;51.960;8.372;2023-02-28T09:31:58;7.00;98.80
20288;DHT22;10303;51.960;8.372;2023-02-28T09:34:25;7.30;97.30
20288;DHT22;10303;51.960;8.372;2023-02-28T09:36:52;7.50;96.50
20288;DHT22;10303;51.960;8.372;2023-02-28T09:39:21;7.80;96.80
20288;DHT22;10303;51.960;8.372;2023-02-28T09:41:51;8.00;96.10
20288;DHT22;10303;51.960;8.372;2023-02-28T09:44:37;8.40;95.80
20288;DHT22;10303;51.960;8.372;2023-02-28T09:50:24;8.70;94.80
20288;DHT22;10303;51.960;8.372;2023-02-28T09:52:58;8.90;94.80
20288;DHT22;10303;51.960;8.372;2023-02-28T09:55:47;9.20;94.60
20288;DHT22;10303;51.960;8.372;2023-02-28T09:58:41;9.40;94.90
20288;DHT22;10303;51.960;8.372;2023-02-28T10:01:29;9.50;93.60
20288;DHT22;10303;51.960;8.372;2023-02-28T10:04:03;9.70;92.60
20288;DHT22;10303;51.960;8.372;2023-02-28T10:06:48;9.80;91.90
20288;DHT22;10303;51.960;8.372;2023-02-28T10:09:19;9.90;91.80
20288;DHT22;10303;51.960;8.372;2023-02-28T10:11:55;9.90;91.40
20288;DHT22;10303;51.960;8.372;2023-02-28T10:14:25;9.90;90.50
20288;DHT22;10303;51.960;8.372;2023-02-28T10:19:25;10.00;89.50
20288;DHT22;10303;51.960;8.372;2023-02-28T10:22:05;10.00;90.00
20288;DHT22;10303;51.960;8.372;2023-02-28T10:24:42;10.00;90.30
20288;DHT22;10303;51.960;8.372;2023-02-28T10:27:16;10.00;88.60
20288;DHT22;10303;51.960;8.372;2023-02-28T10:29:55;10.10;86.60
20288;DHT22;10303;51.960;8.372;2023-02-28T10:32:34;10.10;86.30
20288;DHT22;10303;51.960;8.372;2023-02-28T10:35:24;10.20;88.20
20288;DHT22;10303;51.960;8.372;2023-02-28T10:37:58;10.20;88.40
20288;DHT22;10303;51.960;8.372;2023-02-28T10:40:35;10.40;88.70
20288;DHT22;10303;51.960;8.372;2023-02-28T10:43:04;10.40;88.30
20288;DHT22;10303;51.960;8.372;2023-02-28T10:45:39;10.50;88.30
20288;DHT22;10303;51.960;8.372;2023-02-28T10:50:50;10.70;87.10
20288;DHT22;10303;51.960;8.372;2023-02-28T11:01:52;11.00;82.00
20288;DHT22;10303;51.960;8.372;2023-02-28T11:07:10;11.00;85.70
20288;DHT22;10303;51.960;8.372;2023-02-28T11:09:46;11.10;86.50
20288;DHT22;10303;51.960;8.372;2023-02-28T11:15:25;11.30;85.20
20288;DHT22;10303;51.960;8.372;2023-02-28T11:18:27;11.50;81.60
20288;DHT22;10303;51.960;8.372;2023-02-28T11:20:58;11.70;83.30
20288;DHT22;10303;51.960;8.372;2023-02-28T11:23:29;11.90;82.90
20288;DHT22;10303;51.960;8.372;2023-02-28T11:26:01;12.00;81.60
20288;DHT22;10303;51.960;8.372;2023-02-28T11:28:33;12.00;81.40
20288;DHT22;10303;51.960;8.372;2023-02-28T11:31:03;12.10;79.90
20288;DHT22;10303;51.960;8.372;2023-02-28T11:33:45;12.20;79.90
20288;DHT22;10303;51.960;8.372;2023-02-28T11:38:47;12.30;79.70
20288;DHT22;10303;51.960;8.372;2023-02-28T11:41:29;12.30;80.30
20288;DHT22;10303;51.960;8.372;2023-02-28T11:44:27;12.40;79.20
20288;DHT22;10303;51.960;8.372;2023-02-28T11:47:03;12.40;79.10
20288;DHT22;10303;51.960;8.372;2023-02-28T11:58:29;13.00;80.70
20288;DHT22;10303;51.960;8.372;2023-02-28T12:07:36;13.70;79.60
20288;DHT22;10303;51.960;8.372;2023-02-28T12:16:08;14.40;78.10
20288;DHT22;10303;51.960;8.372;2023-02-28T12:21:56;14.80;75.20
20288;DHT22;10303;51.960;8.372;2023-02-28T12:27:43;15.10;74.70
20288;DHT22;10303;51.960;8.372;2023-02-28T12:30:27;15.30;75.10
20288;DHT22;10303;51.960;8.372;2023-02-28T12:33:09;15.40;74.10
20288;DHT22;10303;51.960;8.372;2023-02-28T12:35:45;15.60;73.50
20288;DHT22;10303;51.960;8.372;2023-02-28T12:38:51;15.70;72.50
20288;DHT22;10303;51.960;8.372;2023-02-28T12:41:40;15.90;70.90
20288;DHT22;10303;51.960;8.372;2023-02-28T12:44:15;16.00;70.40
20288;DHT22;10303;51.960;8.372;2023-02-28T12:46:51;16.10;71.00
20288;DHT22;10303;51.960;8.372;2023-02-28T12:49:30;16.20;68.30
20288;DHT22;10303;51.960;8.372;2023-02-28T12:52:00;16.30;66.20
20288;DHT22;10303;51.960;8.372;2023-02-28T12:55:29;16.30;67.30
20288;DHT22;10303;51.960;8.372;2023-02-28T13:01:04;16.40;66.50
20288;DHT22;10303;51.960;8.372;2023-02-28T13:09:57;16.40;64.30
20288;DHT22;10303;51.960;8.372;2023-02-28T13:12:26;16.40;62.40
20288;DHT22;10303;51.960;8.372;2023-02-28T13:15:16;16.30;62.90
20288;DHT22;10303;51.960;8.372;2023-02-28T13:17:58;16.30;62.90
20288;DHT22;10303;51.960;8.372;2023-02-28T13:20:32;16.20;63.30
20288;DHT22;10303;51.960;8.372;2023-02-28T13:23:01;16.10;63.50
20288;DHT22;10303;51.960;8.372;2023-02-28T13:28:00;15.90;62.50
20288;DHT22;10303;51.960;8.372;2023-02-28T13:38:55;15.40;61.30
20288;DHT22;10303;51.960;8.372;2023-02-28T13:44:21;15.30;62.50
20288;DHT22;10303;51.960;8.372;2023-02-28T13:52:14;14.90;62.00
20288;DHT22;10303;51.960;8.372;2023-02-28T13:55:10;14.80;61.90
20288;DHT22;10303;51.960;8.372;2023-02-28T14:06:54;14.30;61.60
20288;DHT22;10303;51.960;8.372;2023-02-28T14:09:46;14.30;61.10
20288;DHT22;10303;51.960;8.372;2023-02-28T14:18:30;13.80;62.30
20288;DHT22;10303;51.960;8.372;2023-02-28T14:27:35;13.50;62.80
20288;DHT22;10303;51.960;8.372;2023-02-28T14:33:22;13.50;63.20
20288;DHT22;10303;51.960;8.372;2023-02-28T14:36:12;13.40;63.20
20288;DHT22;10303;51.960;8.372;2023-02-28T14:38:46;13.30;62.90
20288;DHT22;10303;51.960;8.372;2023-02-28T14:41:31;13.40;62.80
20288;DHT22;10303;51.960;8.372;2023-02-28T14:44:19;13.30;63.20
20288;DHT22;10303;51.960;8.372;2023-02-28T14:46:53;13.20;63.10
20288;DHT22;10303;51.960;8.372;2023-02-28T14:49:24;13.10;63.10
20288;DHT22;10303;51.960;8.372;2023-02-28T14:54:43;13.10;63.10
20288;DHT22;10303;51.960;8.372;2023-02-28T14:57:25;13.00;62.80
20288;DHT22;10303;51.960;8.372;2023-02-28T15:02:45;12.90;63.80
20288;DHT22;10303;51.960;8.372;2023-02-28T15:07:47;12.80;63.70
20288;DHT22;10303;51.960;8.372;2023-02-28T15:10:19;12.80;64.10
20288;DHT22;10303;51.960;8.372;2023-02-28T15:18:14;12.70;64.10
20288;DHT22;10303;51.960;8.372;2023-02-28T15:20:46;12.70;64.10
20288;DHT22;10303;51.960;8.372;2023-02-28T15:23:14;12.70;63.80
20288;DHT22;10303;51.960;8.372;2023-02-28T15:25:41;12.60;64.50
20288;DHT22;10303;51.960;8.372;2023-02-28T15:28:20;12.60;64.80
20288;DHT22;10303;51.960;8.372;2023-02-28T15:31:00;12.60;64.40
20288;DHT22;10303;51.960;8.372;2023-02-28T15:33:31;12.60;64.70
20288;DHT22;10303;51.960;8.372;2023-02-28T15:36:14;12.50;65.20
20288;DHT22;10303;51.960;8.372;2023-02-28T15:38:43;12.50;65.20
20288;DHT22;10303;51.960;8.372;2023-02-28T15:41:28;12.50;65.70
20288;DHT22;10303;51.960;8.372;2023-02-28T15:47:02;12.50;65.90
20288;DHT22;10303;51.960;8.372;2023-02-28T15:49:48;12.60;65.80
20288;DHT22;10303;51.960;8.372;2023-02-28T15:52:20;12.50;66.00
20288;DHT22;10303;51.960;8.372;2023-02-28T15:54:49;12.50;65.40
20288;DHT22;10303;51.960;8.372;2023-02-28T15:57:23;12.50;66.10
20288;DHT22;10303;51.960;8.372;2023-02-28T15:59:57;12.50;66.40
20288;DHT22;10303;51.960;8.372;2023-02-28T16:02:34;12.40;66.00
20288;DHT22;10303;51.960;8.372;2023-02-28T16:07:40;12.40;66.20
20288;DHT22;10303;51.960;8.372;2023-02-28T16:10:10;12.30;66.20
20288;DHT22;10303;51.960;8.372;2023-02-28T16:12:40;12.30;65.90
20288;DHT22;10303;51.960;8.372;2023-02-28T16:15:20;12.30;66.10
20288;DHT22;10303;51.960;8.372;2023-02-28T16:17:49;12.20;66.20
20288;DHT22;10303;51.960;8.372;2023-02-28T16:20:19;12.20;66.00
20288;DHT22;10303;51.960;8.372;2023-02-28T16:22:46;12.10;66.20
20288;DHT22;10303;51.960;8.372;2023-02-28T16:25:18;12.00;66.10
20288;DHT22;10303;51.960;8.372;2023-02-28T16:27:51;12.10;66.00
20288;DHT22;10303;51.960;8.372;2023-02-28T16:30:21;11.90;66.10
20288;DHT22;10303;51.960;8.372;2023-02-28T16:32:51;11.80;66.20
20288;DHT22;10303;51.960;8.372;2023-02-28T16:35:18;11.80;66.40
20288;DHT22;10303;51.960;8.372;2023-02-28T16:37:45;11.60;66.40
20288;DHT22;10303;51.960;8.372;2023-02-28T16:40:18;11.60;66.60
20288;DHT22;10303;51.960;8.372;2023-02-28T16:42:50;11.50;66.60
20288;DHT22;10303;51.960;8.372;2023-02-28T16:45:23;11.40;66.70
20288;DHT22;10303;51.960;8.372;2023-02-28T16:47:51;11.40;66.70
20288;DHT22;10303;51.960;8.372;2023-02-28T16:50:23;11.30;66.80
20288;DHT22;10303;51.960;8.372;2023-02-28T16:52:51;11.20;66.70
20288;DHT22;10303;51.960;8.372;2023-02-28T16:55:18;11.10;66.60
20288;DHT22;10303;51.960;8.372;2023-02-28T16:57:50;11.10;66.70
20288;DHT22;10303;51.960;8.372;2023-02-28T17:00:19;11.00;66.70
20288;DHT22;10303;51.960;8.372;2023-02-28T17:02:45;10.90;66.70
20288;DHT22;10303;51.960;8.372;2023-02-28T17:05:12;10.80;66.70
20288;DHT22;10303;51.960;8.372;2023-02-28T17:07:40;10.80;66.80
20288;DHT22;10303;51.960;8.372;2023-02-28T17:10:26;10.50;66.70
20288;DHT22;10303;51.960;8.372;2023-02-28T17:12:52;10.40;66.90
20288;DHT22;10303;51.960;8.372;2023-02-28T17:15:19;10.30;66.90
20288;DHT22;10303;51.960;8.372;2023-02-28T17:17:47;10.40;67.00
20288;DHT22;10303;51.960;8.372;2023-02-28T17:20:21;10.20;67.90
20288;DHT22;10303;51.960;8.372;2023-02-28T17:22:52;10.00;67.20
20288;DHT22;10303;51.960;8.372;2023-02-28T17:25:20;10.00;67.30
20288;DHT22;10303;51.960;8.372;2023-02-28T17:27:48;9.80;67.40
20288;DHT22;10303;51.960;8.372;2023-02-28T17:30:24;9.70;67.50
20288;DHT22;10303;51.960;8.372;2023-02-28T17:32:54;9.60;67.70
20288;DHT22;10303;51.960;8.372;2023-02-28T17:35:21;9.50;67.60
20288;DHT22;10303;51.960;8.372;2023-02-28T17:37:50;9.40;67.80
20288;DHT22;10303;51.960;8.372;2023-02-28T17:40:19;9.40;67.80
20288;DHT22;10303;51.960;8.372;2023-02-28T17:42:47;9.30;67.90
20288;DHT22;10303;51.960;8.372;2023-02-28T17:45:14;9.20;68.00
20288;DHT22;10303;51.960;8.372;2023-02-28T17:47:42;9.20;68.10
20288;DHT22;10303;51.960;8.372;2023-02-28T17:50:19;9.00;68.10
20288;DHT22;10303;51.960;8.372;2023-02-28T17:52:47;8.90;68.30
20288;DHT22;10303;51.960;8.372;2023-02-28T17:55:13;8.80;68.30
20288;DHT22;10303;51.960;8.372;2023-02-28T17:57:40;8.70;68.40
20288;DHT22;10303;51.960;8.372;2023-02-28T18:00:08;8.70;68.50
20288;DHT22;10303;51.960;8.372;2023-02-28T18:02:38;8.50;68.50
20288;DHT22;10303;51.960;8.372;2023-02-28T18:05:04;8.40;68.60
20288;DHT22;10303;51.960;8.372;2023-02-28T18:07:31;8.40;68.80
20288;DHT22;10303;51.960;8.372;2023-02-28T18:09:57;8.40;69.00
20288;DHT22;10303;51.960;8.372;2023-02-28T18:12:23;8.30;69.10
20288;DHT22;10303;51.960;8.372;2023-02-28T18:14:49;8.40;69.30
20288;DHT22;10303;51.960;8.372;2023-02-28T18:17:15;8.30;69.40
20288;DHT22;10303;51.960;8.372;2023-02-28T18:19:41;8.00;69.40
20288;DHT22;10303;51.960;8.372;2023-02-28T18:22:07;8.10;69.80
20288;DHT22;10303;51.960;8.372;2023-02-28T18:24:33;7.80;69.70
20288;DHT22;10303;51.960;8.372;2023-02-28T18:27:00;7.70;69.70
20288;DHT22;10303;51.960;8.372;2023-02-28T18:29:27;7.60;69.70
20288;DHT22;10303;51.960;8.372;2023-02-28T18:31:55;7.50;69.90
20288;DHT22;10303;51.960;8.372;2023-02-28T18:34:22;7.50;70.00
20288;DHT22;10303;51.960;8.372;2023-02-28T18:36:51;7.40;70.20
20288;DHT22;10303;51.960;8.372;2023-02-28T18:39:18;7.30;70.20
20288;DHT22;10303;51.960;8.372;2023-02-28T18:41:44;7.20;70.40
20288;DHT22;10303;51.960;8.372;2023-02-28T18:44:10;7.10;70.40